createdAt,value
2023-05-26T00:00:12.266Z,100.00
2023-05-26T00:05:14.649Z,100.00
2023-05-26T00:10:16.257Z,100.00
2023-05-26T00:15:18.018Z,100.00
2023-05-26T00:20:19.776Z,100.00
2023-05-26T00:25:21.455Z,100.00
2023-05-26T00:30:23.050Z,100.00
2023-05-26T00:35:24.691Z,100.00
2023-05-26T00:40:26.447Z,100.00
2023-05-26T00:45:28.044Z,100.00
2023-05-26T00:50:29.880Z,100.00
2023-05-26T00:55:32.327Z,100.00
2023-05-26T01:00:34.690Z,100.00
2023-05-26T01:05:36.278Z,100.00
2023-05-26T01:10:37.892Z,100.00
2023-05-26T01:15:57.478Z,100.00
2023-05-26T01:21:11.719Z,100.00
2023-05-26T01:26:50.737Z,100.00
2023-05-26T01:31:52.403Z,100.00
2023-05-26T01:36:54.005Z,100.00
2023-05-26T01:42:19.802Z,100.00
2023-05-26T01:47:33.288Z,100.00
2023-05-26T01:52:38.509Z,100.00
2023-05-26T01:57:43.996Z,100.00
2023-05-26T02:02:46.418Z,100.00
2023-05-26T02:07:48.135Z,100.00
2023-05-26T02:12:49.852Z,100.00
2023-05-26T02:17:51.463Z,100.00
2023-05-26T02:22:53.391Z,100.00
2023-05-26T02:27:55.033Z,100.00
2023-05-26T02:32:56.688Z,100.00
2023-05-26T02:37:58.374Z,100.00
2023-05-26T02:43:00.926Z,100.00
2023-05-26T02:48:02.497Z,100.00
2023-05-26T02:53:06.133Z,100.00
2023-05-26T02:58:07.793Z,100.00
2023-05-26T03:03:10.110Z,100.00
2023-05-26T03:08:11.759Z,100.00
2023-05-26T03:13:13.504Z,100.00
2023-05-26T03:18:15.365Z,100.00
2023-05-26T03:23:18.689Z,100.00
2023-05-26T03:28:20.360Z,100.00
2023-05-26T03:33:21.926Z,100.00
2023-05-26T03:38:23.639Z,100.00
2023-05-26T03:43:25.329Z,100.00
2023-05-26T03:48:27.757Z,100.00
2023-05-26T03:53:30.336Z,100.00
2023-05-26T03:58:32.617Z,100.00
2023-05-26T04:03:34.488Z,100.00
2023-05-26T04:08:36.548Z,100.00
2023-05-26T04:13:38.602Z,100.00
2023-05-26T04:18:40.929Z,100.00
2023-05-26T04:23:42.697Z,100.00
2023-05-26T04:28:44.406Z,100.00
2023-05-26T04:34:15.242Z,100.00
2023-05-26T04:39:31.904Z,100.00
2023-05-26T04:44:33.545Z,100.00
2023-05-26T04:49:36.941Z,100.00
2023-05-26T04:54:39.011Z,100.00
2023-05-26T04:59:40.943Z,100.00
2023-05-26T05:04:42.616Z,100.00
2023-05-26T05:09:44.358Z,100.00
2023-05-26T05:14:46.087Z,100.00
2023-05-26T05:19:49.599Z,100.00
2023-05-26T05:24:56.199Z,100.00
2023-05-26T05:29:57.837Z,100.00
2023-05-26T05:35:01.762Z,100.00
2023-05-26T05:40:05.531Z,100.00
2023-05-26T05:45:07.722Z,100.00
2023-05-26T05:50:41.353Z,100.00
2023-05-26T05:55:43.096Z,100.00
2023-05-26T06:00:45.121Z,100.00
2023-05-26T06:05:47.165Z,100.00
2023-05-26T06:10:49.183Z,99.75
2023-05-26T06:15:50.952Z,100.00
2023-05-26T06:20:54.622Z,98.86
2023-05-26T06:25:56.631Z,100.00
2023-05-26T06:30:58.626Z,100.00
2023-05-26T06:36:23.716Z,100.00
2023-05-26T06:41:26.681Z,95.12
2023-05-26T06:46:29.690Z,87.66
2023-05-26T06:51:31.340Z,84.20
2023-05-26T06:56:33.364Z,82.24
2023-05-26T07:01:35.829Z,82.25
2023-05-26T07:06:46.727Z,81.72
2023-05-26T07:11:50.375Z,76.13
2023-05-26T07:17:12.092Z,76.48
2023-05-26T07:22:15.200Z,79.01
2023-05-26T07:27:33.624Z,76.25
2023-05-26T07:32:35.519Z,71.65
2023-05-26T07:37:37.353Z,71.25
2023-05-26T07:42:38.968Z,70.68
2023-05-26T07:47:40.574Z,70.00
2023-05-26T07:52:42.311Z,70.35
2023-05-26T07:57:43.901Z,66.84
2023-05-26T08:02:45.615Z,66.51
2023-05-26T08:07:47.340Z,63.23
2023-05-26T08:12:49.106Z,63.27
2023-05-26T08:17:50.961Z,63.69
2023-05-26T08:22:52.623Z,60.75
2023-05-26T08:27:54.547Z,58.02
2023-05-26T08:32:56.229Z,59.71
2023-05-26T08:37:57.879Z,61.61
2023-05-26T08:43:03.873Z,57.91
2023-05-26T08:48:09.251Z,60.41
2023-05-26T08:53:10.882Z,57.84
2023-05-26T08:58:14.689Z,56.92
2023-05-26T09:03:16.405Z,54.41
2023-05-26T09:08:18.100Z,57.03
2023-05-26T09:13:19.921Z,58.03
2023-05-26T09:18:21.610Z,55.02
2023-05-26T09:23:23.309Z,53.96
2023-05-26T09:28:24.921Z,53.24
2023-05-26T09:33:26.528Z,52.82
2023-05-26T09:38:28.162Z,54.85
2023-05-26T09:43:34.078Z,60.21
2023-05-26T09:48:36.027Z,56.32
2023-05-26T09:53:37.586Z,55.89
2023-05-26T09:58:40.612Z,51.50
2023-05-26T10:03:42.365Z,53.59
2023-05-26T10:08:46.579Z,52.81
2023-05-26T10:13:48.388Z,54.09
2023-05-26T10:18:50.836Z,51.97
2023-05-26T10:24:02.940Z,49.20
2023-05-26T10:29:07.801Z,53.11
2023-05-26T10:34:14.037Z,49.02
2023-05-26T10:39:19.099Z,46.36
2023-05-26T10:44:40.928Z,47.60
2023-05-26T10:49:51.883Z,44.37
2023-05-26T10:54:53.672Z,44.88
2023-05-26T10:59:55.241Z,46.36
2023-05-26T11:04:56.902Z,45.61
2023-05-26T11:10:05.588Z,45.21
2023-05-26T11:15:29.252Z,45.45
2023-05-26T11:20:30.958Z,45.28
2023-05-26T11:25:44.528Z,45.30
2023-05-26T11:30:46.091Z,45.01
2023-05-26T11:35:47.669Z,44.10
2023-05-26T11:40:49.788Z,46.07
2023-05-26T11:45:54.875Z,46.27
2023-05-26T11:50:56.753Z,49.53
2023-05-26T11:56:38.495Z,43.82
2023-05-26T12:01:40.146Z,43.66
2023-05-26T12:06:43.708Z,46.45
2023-05-26T12:11:47.406Z,45.19
2023-05-26T12:16:50.488Z,45.46
2023-05-26T12:21:54.608Z,43.39
2023-05-26T12:26:56.333Z,41.47
2023-05-26T12:31:58.194Z,40.19
2023-05-26T12:36:59.940Z,39.96
2023-05-26T12:42:01.606Z,42.51
2023-05-26T12:47:03.228Z,41.42
2023-05-26T12:52:04.914Z,41.97
2023-05-26T12:57:06.487Z,44.38
2023-05-26T13:02:08.607Z,43.09
2023-05-26T13:07:10.344Z,40.97
2023-05-26T13:12:12.019Z,39.41
2023-05-26T13:17:13.596Z,39.92
2023-05-26T13:22:15.212Z,40.67
2023-05-26T13:27:16.777Z,39.29
2023-05-26T13:32:18.401Z,40.30
2023-05-26T13:37:20.036Z,40.37
2023-05-26T13:42:21.743Z,39.35
2023-05-26T13:47:26.145Z,40.85
2023-05-26T13:52:28.415Z,40.76
2023-05-26T13:57:30.770Z,44.18
2023-05-26T14:02:33.238Z,40.66
2023-05-26T14:07:35.052Z,43.15
2023-05-26T14:12:36.682Z,44.43
2023-05-26T14:17:39.068Z,45.31
2023-05-26T14:22:41.261Z,43.01
2023-05-26T14:27:43.236Z,44.12
2023-05-26T14:32:46.402Z,42.29
2023-05-26T14:37:50.163Z,42.08
2023-05-26T14:42:51.747Z,40.17
2023-05-26T14:47:53.899Z,42.42
2023-05-26T14:52:55.545Z,40.98
2023-05-26T14:57:57.105Z,38.79
2023-05-26T15:02:58.754Z,41.76
2023-05-26T15:08:01.476Z,38.17
2023-05-26T15:13:03.182Z,41.69
2023-05-26T15:18:05.897Z,38.16
2023-05-26T15:23:07.904Z,37.98
2023-05-26T15:28:09.643Z,39.82
2023-05-26T15:33:11.276Z,39.30
2023-05-26T15:38:12.905Z,40.25
2023-05-26T15:43:14.858Z,37.71
2023-05-26T15:48:17.883Z,36.83
2023-05-26T15:53:19.541Z,38.39
2023-05-26T15:58:21.218Z,37.90
2023-05-26T16:03:22.909Z,40.89
2023-05-26T16:08:24.525Z,41.14
2023-05-26T16:13:26.076Z,38.66
2023-05-26T16:18:27.666Z,40.45
2023-05-26T16:23:29.480Z,38.67
2023-05-26T16:28:31.729Z,37.05
2023-05-26T16:33:33.335Z,38.44
2023-05-26T16:38:34.968Z,38.60
2023-05-26T16:43:47.902Z,40.17
2023-05-26T16:48:50.315Z,39.10
2023-05-26T16:53:51.875Z,39.59
2023-05-26T16:58:53.481Z,38.87
2023-05-26T17:03:55.052Z,38.61
2023-05-26T17:08:56.792Z,40.67
2023-05-26T17:13:58.389Z,39.67
2023-05-26T17:18:59.947Z,37.44
2023-05-26T17:24:01.641Z,36.79
2023-05-26T17:29:03.220Z,38.71
2023-05-26T17:34:04.859Z,36.61
2023-05-26T17:39:06.985Z,36.98
2023-05-26T17:44:10.666Z,37.81
2023-05-26T17:49:13.763Z,38.59
2023-05-26T17:54:15.297Z,38.67
2023-05-26T17:59:16.876Z,38.65
2023-05-26T18:04:18.619Z,40.17
2023-05-26T18:09:20.269Z,41.08
2023-05-26T18:14:21.879Z,41.71
2023-05-26T18:19:23.459Z,42.35
2023-05-26T18:24:25.135Z,43.65
2023-05-26T18:29:26.709Z,43.67
2023-05-26T18:34:28.301Z,45.23
2023-05-26T18:39:30.290Z,46.02
2023-05-26T18:44:31.831Z,45.85
2023-05-26T18:49:33.542Z,47.05
2023-05-26T18:54:35.118Z,47.04
2023-05-26T18:59:36.662Z,47.54
2023-05-26T19:04:38.523Z,47.59
2023-05-26T19:09:40.063Z,48.57
2023-05-26T19:14:41.619Z,49.49
2023-05-26T19:19:43.167Z,49.94
2023-05-26T19:24:44.833Z,50.56
2023-05-26T19:29:46.389Z,51.60
2023-05-26T19:34:48.164Z,51.64
2023-05-26T19:39:49.694Z,53.75
2023-05-26T19:44:51.236Z,53.73
2023-05-26T19:49:52.970Z,55.64
2023-05-26T19:54:54.500Z,56.71
2023-05-26T19:59:56.096Z,57.81
2023-05-26T20:04:57.628Z,58.21
2023-05-26T20:09:59.160Z,57.46
2023-05-26T20:15:01.918Z,58.75
2023-05-26T20:20:12.637Z,60.03
2023-05-26T20:25:15.356Z,61.35
2023-05-26T20:30:16.941Z,60.95
2023-05-26T20:35:18.696Z,60.75
2023-05-26T20:40:20.321Z,62.70
2023-05-26T20:45:21.865Z,63.75
2023-05-26T20:50:23.563Z,64.02
2023-05-26T20:55:25.583Z,66.54
2023-05-26T21:00:27.127Z,66.65
2023-05-26T21:05:28.696Z,67.21
2023-05-26T21:10:30.229Z,66.41
2023-05-26T21:15:31.860Z,67.33
2023-05-26T21:20:33.492Z,67.38
2023-05-26T21:25:35.041Z,66.92
2023-05-26T21:30:36.670Z,68.15
2023-05-26T21:35:38.276Z,67.77
2023-05-26T21:40:39.809Z,69.29
2023-05-26T21:45:41.350Z,71.13
2023-05-26T21:50:42.960Z,70.98
2023-05-26T21:55:44.539Z,71.58
2023-05-26T22:00:46.094Z,71.94
2023-05-26T22:05:47.713Z,73.37
2023-05-26T22:10:49.277Z,73.81
2023-05-26T22:15:50.845Z,74.82
2023-05-26T22:20:52.449Z,75.28
2023-05-26T22:25:54.401Z,75.57
2023-05-26T22:30:57.762Z,77.55
2023-05-26T22:35:59.462Z,79.24
2023-05-26T22:41:01.086Z,79.85
2023-05-26T22:46:02.636Z,81.51
2023-05-26T22:51:04.305Z,82.09
2023-05-26T22:56:13.534Z,84.49
2023-05-26T23:01:15.980Z,86.09
2023-05-26T23:06:17.651Z,88.12
2023-05-26T23:11:19.383Z,89.23
2023-05-26T23:16:21.066Z,90.21
2023-05-26T23:21:22.698Z,92.42
2023-05-26T23:26:24.299Z,93.16
2023-05-26T23:31:25.916Z,95.96
2023-05-26T23:36:27.619Z,99.63
2023-05-26T23:41:29.261Z,100.00
2023-05-26T23:46:30.930Z,100.00
2023-05-26T23:51:32.515Z,100.00
2023-05-26T23:56:34.204Z,100.00
